Time;durP1;ratioP1;P1;durP2;ratioP2;P2;SDS_P1;SDS_P2;PMS_P1;PMS_P2;Temp;Humidity;BMP_temperature;BMP_pressure;BME280_temperature;BME280_humidity;BME280_pressure;Samples;Min_cycle;Max_cycle;Signal;HPM_P1;HPM_P2
2021/03/31 00:00:27;;;;;;;12.57;7.10;;;11.90;81.10;;;;;;5016338;28;20217;-72
2021/03/31 00:02:55;;;;;;;10.70;7.47;;;11.90;81.10;;;;;;5015970;28;20206;-72
2021/03/31 00:05:21;;;;;;;9.90;7.00;;;11.90;81.40;;;;;;5017664;28;20472;-72
2021/03/31 00:07:47;;;;;;;8.50;6.70;;;11.80;81.80;;;;;;5016902;28;20486;-72
2021/03/31 00:10:24;;;;;;;13.83;8.00;;;11.80;82.30;;;;;;5015589;28;20188;-72
2021/03/31 00:12:49;;;;;;;15.40;8.30;;;11.70;82.70;;;;;;5015338;28;20333;-72
2021/03/31 00:15:16;;;;;;;12.47;8.17;;;11.70;83.50;;;;;;5015832;28;20935;-72
2021/03/31 00:17:41;;;;;;;9.70;7.80;;;11.60;84.10;;;;;;5014834;28;20159;-72
2021/03/31 00:20:10;;;;;;;11.93;7.17;;;11.50;84.80;;;;;;5013920;28;20512;-72
2021/03/31 00:22:35;;;;;;;9.00;7.47;;;11.40;85.00;;;;;;5013857;28;20237;-72
2021/03/31 00:25:01;;;;;;;9.20;6.53;;;11.40;85.30;;;;;;5015122;28;20402;-72
2021/03/31 00:27:26;;;;;;;9.30;6.93;;;11.40;85.50;;;;;;5013746;28;20176;-72
2021/03/31 00:29:52;;;;;;;12.07;7.23;;;11.40;85.50;;;;;;5013216;28;20262;-72
2021/03/31 00:32:17;;;;;;;8.87;7.50;;;11.40;86.00;;;;;;5009008;28;20522;-72
2021/03/31 00:34:43;;;;;;;8.50;7.17;;;11.40;86.80;;;;;;5002354;28;20430;-72
2021/03/31 00:37:08;;;;;;;14.20;7.53;;;11.30;87.30;;;;;;5010690;28;20179;-72
2021/03/31 00:39:34;;;;;;;9.37;7.47;;;11.20;87.40;;;;;;5013436;28;20176;-72
2021/03/31 00:41:59;;;;;;;8.33;6.60;;;11.20;87.90;;;;;;5013545;28;20547;-72
2021/03/31 00:44:25;;;;;;;7.53;6.83;;;11.10;87.80;;;;;;5013473;28;20192;-72
2021/03/31 00:46:50;;;;;;;9.03;6.30;;;11.10;88.00;;;;;;5012698;28;20183;-72
2021/03/31 00:49:16;;;;;;;10.20;6.80;;;11.10;88.40;;;;;;5007120;28;20184;-72
2021/03/31 00:51:42;;;;;;;11.63;6.90;;;11.10;88.70;;;;;;4999335;28;20258;-72
2021/03/31 00:54:07;;;;;;;7.40;6.70;;;11.10;88.90;;;;;;5008734;28;20201;-72
2021/03/31 00:56:33;;;;;;;8.50;6.40;;;11.20;89.20;;;;;;5004888;28;20769;-72
2021/03/31 00:58:58;;;;;;;9.20;6.23;;;11.20;89.10;;;;;;5020009;28;20192;-73
2021/03/31 01:01:24;;;;;;;8.10;5.87;;;11.30;88.90;;;;;;5005051;28;20204;-72
2021/03/31 01:03:49;;;;;;;8.93;6.77;;;11.30;88.60;;;;;;5008315;28;20203;-73
2021/03/31 01:06:15;;;;;;;7.83;6.87;;;11.30;88.60;;;;;;5019193;28;20184;-72
2021/03/31 01:08:40;;;;;;;10.53;7.40;;;11.30;88.70;;;;;;5011106;28;20199;-72
2021/03/31 01:11:06;;;;;;;9.63;6.40;;;11.30;88.80;;;;;;5005182;28;20199;-72
2021/03/31 01:13:48;;;;;;;7.77;6.27;;;11.20;89.00;;;;;;5016667;28;20171;-72
2021/03/31 01:16:36;;;;;;;9.47;7.20;;;11.20;89.20;;;;;;5011815;28;20211;-73
2021/03/31 01:19:07;;;;;;;9.03;6.80;;;11.10;89.80;;;;;;5012450;28;20820;-72
2021/03/31 01:21:50;;;;;;;11.63;6.80;;;10.90;90.20;;;;;;5000399;28;20509;-72
2021/03/31 01:24:33;;;;;;;7.67;5.90;;;10.90;90.50;;;;;;4999929;28;20400;-72
2021/03/31 01:27:10;;;;;;;10.13;7.00;;;10.80;90.50;;;;;;4999446;28;20410;-72
2021/03/31 01:30:04;;;;;;;9.33;6.23;;;10.70;90.60;;;;;;5026162;28;20425;-72
2021/03/31 01:32:33;;;;;;;6.40;5.77;;;10.70;90.80;;;;;;5023880;28;20448;-72
2021/03/31 01:35:05;;;;;;;11.00;6.73;;;10.70;90.80;;;;;;5021051;28;20413;-72
2021/03/31 01:37:30;;;;;;;7.97;6.90;;;10.70;90.80;;;;;;5036667;28;20402;-72
2021/03/31 01:39:58;;;;;;;9.70;6.97;;;10.70;91.00;;;;;;5035941;28;20454;-72
2021/03/31 01:42:26;;;;;;;7.50;6.70;;;10.70;91.20;;;;;;5036466;28;20187;-72
2021/03/31 01:44:58;;;;;;;14.80;7.00;;;10.70;91.50;;;;;;5036363;28;20521;-72
2021/03/31 01:47:27;;;;;;;8.83;7.13;;;10.60;91.70;;;;;;5035741;28;20452;-72
2021/03/31 01:49:54;;;;;;;11.37;6.73;;;10.50;91.80;;;;;;5035321;28;20410;-73
2021/03/31 01:52:22;;;;;;;8.70;7.30;;;10.60;92.10;;;;;;5036002;28;20464;-72
2021/03/31 01:54:49;;;;;;;8.00;6.80;;;10.50;92.10;;;;;;5035728;28;20417;-72
2021/03/31 01:57:15;;;;;;;8.77;6.50;;;10.50;92.20;;;;;;5033911;28;20421;-72
2021/03/31 01:59:42;;;;;;;6.83;6.13;;;10.50;92.30;;;;;;5035282;28;20424;-72
2021/03/31 02:02:10;;;;;;;7.80;5.90;;;10.60;92.40;;;;;;5035654;28;20537;-72
2021/03/31 02:04:38;;;;;;;9.37;6.83;;;10.50;92.30;;;;;;5035849;28;20433;-72
2021/03/31 02:10:27;;;;;;;8.30;6.03;;;10.50;92.50;;;;;;5036600;28;20408;-72
2021/03/31 02:12:54;;;;;;;8.87;5.60;;;10.50;92.70;;;;;;5036559;28;20479;-72
2021/03/31 02:15:23;;;;;;;9.00;6.77;;;10.50;92.70;;;;;;5037445;28;20479;-72
2021/03/31 02:17:50;;;;;;;8.33;7.20;;;10.40;92.60;;;;;;5035932;28;20837;-73
2021/03/31 02:20:19;;;;;;;7.23;6.50;;;10.50;92.70;;;;;;5036688;28;20426;-72
2021/03/31 02:22:46;;;;;;;8.17;6.70;;;10.40;92.70;;;;;;5035970;28;20467;-72
2021/03/31 02:25:13;;;;;;;7.40;5.90;;;10.40;92.80;;;;;;5035042;28;20448;-72
2021/03/31 02:27:39;;;;;;;8.20;6.50;;;10.40;92.90;;;;;;5034192;28;20417;-72
2021/03/31 02:30:08;;;;;;;7.53;6.70;;;10.40;93.10;;;;;;5033624;28;20464;-72
2021/03/31 02:32:34;;;;;;;9.83;7.33;;;10.30;93.00;;;;;;5031060;28;20465;-72
2021/03/31 02:35:01;;;;;;;9.70;7.67;;;10.30;92.90;;;;;;5015134;28;20422;-72
2021/03/31 02:37:28;;;;;;;9.25;6.40;;;10.40;92.80;;;;;;5014900;28;20459;-72
2021/03/31 02:40:31;;;;;;;9.30;6.60;;;10.40;92.80;;;;;;5014344;28;20198;-72
2021/03/31 02:42:58;;;;;;;8.07;5.90;;;10.50;92.80;;;;;;5015116;28;20406;-72
2021/03/31 02:45:26;;;;;;;8.80;6.93;;;10.50;92.70;;;;;;5015178;28;20434;-73
2021/03/31 02:47:52;;;;;;;9.63;6.80;;;10.50;92.50;;;;;;5015159;28;20395;-73
2021/03/31 02:50:21;;;;;;;9.47;7.80;;;10.50;92.50;;;;;;5025893;28;20488;-71
2021/03/31 02:52:49;;;;;;;8.10;6.97;;;10.40;92.50;;;;;;5035328;28;20452;-72
2021/03/31 02:55:16;;;;;;;8.40;6.40;;;10.40;92.50;;;;;;5035775;28;20401;-72
2021/03/31 02:57:43;;;;;;;9.83;6.77;;;10.30;92.50;;;;;;5035731;28;20406;-72
2021/03/31 03:00:11;;;;;;;12.10;6.53;;;10.30;92.60;;;;;;5031249;28;20496;-72
2021/03/31 03:02:38;;;;;;;8.30;5.80;;;10.20;92.50;;;;;;5038748;28;20425;-73
2021/03/31 03:05:07;;;;;;;7.00;6.13;;;10.30;92.60;;;;;;5039778;28;20395;-72
2021/03/31 03:07:34;;;;;;;6.60;6.00;;;10.30;92.60;;;;;;5021622;28;20425;-71
2021/03/31 03:10:01;;;;;;;8.03;6.73;;;10.30;92.50;;;;;;5014457;28;20977;-72
2021/03/31 03:12:27;;;;;;;9.93;6.37;;;10.30;92.50;;;;;;5016163;28;20883;-72
2021/03/31 03:14:53;;;;;;;6.83;6.10;;;10.30;92.60;;;;;;5014584;28;20871;-72
2021/03/31 03:17:19;;;;;;;6.57;5.97;;;10.30;92.70;;;;;;5014516;28;20417;-72
2021/03/31 03:19:45;;;;;;;6.57;5.87;;;10.30;92.60;;;;;;5014456;28;20414;-72
2021/03/31 03:22:12;;;;;;;9.70;7.00;;;10.40;92.60;;;;;;5015598;28;20474;-72
2021/03/31 03:24:38;;;;;;;8.70;5.50;;;10.40;92.40;;;;;;5014519;28;20417;-72
2021/03/31 03:27:05;;;;;;;5.90;5.40;;;10.40;92.30;;;;;;5014311;28;20426;-72
2021/03/31 03:29:31;;;;;;;8.07;6.93;;;10.40;92.20;;;;;;5014240;28;20572;-72
2021/03/31 03:31:57;;;;;;;12.43;7.00;;;10.40;92.20;;;;;;5015409;28;20552;-72
2021/03/31 03:34:23;;;;;;;7.60;6.27;;;10.40;92.20;;;;;;5014396;28;20195;-72
2021/03/31 03:36:49;;;;;;;7.13;5.60;;;10.30;92.30;;;;;;5013984;28;20499;-72
2021/03/31 03:39:15;;;;;;;13.43;6.37;;;10.30;92.40;;;;;;5014124;28;20665;-72
2021/03/31 03:41:43;;;;;;;7.30;6.60;;;10.30;92.50;;;;;;5014115;28;20498;-72
2021/03/31 03:44:09;;;;;;;7.03;6.23;;;10.30;92.50;;;;;;5015319;28;20446;-72
2021/03/31 03:46:35;;;;;;;6.70;6.00;;;10.30;92.80;;;;;;5014123;28;20552;-72
2021/03/31 03:49:03;;;;;;;6.67;5.80;;;10.20;92.70;;;;;;5013050;28;20424;-72
2021/03/31 03:51:30;;;;;;;8.60;5.43;;;10.20;92.70;;;;;;5013820;28;20962;-72
2021/03/31 03:53:56;;;;;;;9.50;6.80;;;10.20;92.80;;;;;;5014875;28;20438;-73
2021/03/31 03:56:22;;;;;;;6.43;5.70;;;10.20;92.70;;;;;;5012981;28;20680;-72
2021/03/31 03:58:48;;;;;;;9.80;6.57;;;10.20;92.70;;;;;;5013870;28;20625;-72
2021/03/31 04:01:14;;;;;;;6.27;5.67;;;10.20;92.60;;;;;;5013740;28;20983;-72
2021/03/31 04:03:40;;;;;;;8.13;6.50;;;10.20;92.60;;;;;;5014845;28;20268;-72
2021/03/31 04:06:07;;;;;;;8.60;6.90;;;10.20;92.70;;;;;;5013722;28;20783;-72
2021/03/31 04:08:33;;;;;;;6.43;5.73;;;10.30;92.70;;;;;;5012676;28;20418;-72
2021/03/31 04:10:59;;;;;;;8.67;7.00;;;10.20;92.60;;;;;;5013734;28;20855;-72
2021/03/31 04:13:28;;;;;;;7.97;6.33;;;10.30;92.80;;;;;;5014052;28;20648;-72
2021/03/31 04:16:08;;;;;;;8.90;6.00;;;10.20;92.60;;;;;;5015132;28;20433;-72
2021/03/31 04:18:37;;;;;;;9.07;6.10;;;10.30;92.60;;;;;;5013883;28;20424;-72
2021/03/31 04:21:03;;;;;;;10.97;5.97;;;10.20;92.50;;;;;;5016363;28;20811;-72
2021/03/31 04:23:29;;;;;;;12.03;6.57;;;10.20;92.50;;;;;;5019666;28;20421;-72
2021/03/31 04:25:56;;;;;;;6.97;5.83;;;10.10;92.30;;;;;;5014864;28;20759;-72
2021/03/31 04:28:23;;;;;;;8.37;6.33;;;10.10;92.30;;;;;;5013720;28;20171;-72
2021/03/31 04:30:49;;;;;;;8.30;6.60;;;10.20;92.30;;;;;;5013237;28;20962;-72
2021/03/31 04:33:16;;;;;;;7.20;5.43;;;10.20;92.20;;;;;;5013668;28;20434;-72
2021/03/31 04:35:42;;;;;;;10.23;5.53;;;10.20;92.10;;;;;;5016051;28;20544;-72
2021/03/31 04:38:13;;;;;;;6.83;5.70;;;10.20;92.00;;;;;;5033000;28;20492;-72
2021/03/31 04:40:56;;;;;;;9.10;6.23;;;10.10;91.90;;;;;;5033214;28;20448;-72
2021/03/31 04:43:23;;;;;;;9.80;5.80;;;10.10;92.00;;;;;;5034233;28;20489;-72
2021/03/31 04:45:49;;;;;;;7.33;6.10;;;10.10;92.00;;;;;;5040118;28;20420;-72
2021/03/31 04:48:15;;;;;;;6.83;6.17;;;10.10;92.10;;;;;;5035017;28;20457;-72
2021/03/31 04:50:40;;;;;;;10.37;6.50;;;10.10;92.10;;;;;;5028642;28;20235;-72
2021/03/31 04:53:06;;;;;;;6.70;6.10;;;10.10;92.00;;;;;;5006205;28;20181;-72
2021/03/31 04:55:32;;;;;;;11.93;5.83;;;10.10;91.90;;;;;;5017504;28;20513;-72
2021/03/31 04:57:58;;;;;;;8.47;6.50;;;10.10;91.80;;;;;;5016879;28;20207;-72
2021/03/31 05:00:24;;;;;;;9.17;6.40;;;10.10;91.80;;;;;;5014821;28;20981;-72
2021/03/31 05:02:49;;;;;;;9.20;6.40;;;10.10;91.90;;;;;;5008019;28;20656;-72
2021/03/31 05:05:15;;;;;;;9.83;6.67;;;10.20;92.10;;;;;;4997548;28;20172;-73
2021/03/31 05:07:41;;;;;;;8.27;6.07;;;10.10;92.00;;;;;;5006119;28;20189;-73
2021/03/31 05:10:07;;;;;;;7.30;6.30;;;10.10;92.00;;;;;;5004833;28;20520;-72
2021/03/31 05:12:32;;;;;;;6.57;5.60;;;10.10;92.00;;;;;;5007762;28;20736;-72
2021/03/31 05:14:58;;;;;;;13.57;7.00;;;10.00;92.00;;;;;;4997231;28;20463;-72
2021/03/31 05:17:24;;;;;;;13.83;6.77;;;10.00;92.00;;;;;;5008272;28;20610;-72
2021/03/31 05:19:49;;;;;;;12.50;7.57;;;10.00;92.20;;;;;;5013046;28;20324;-72
2021/03/31 05:22:15;;;;;;;10.10;6.40;;;10.00;92.20;;;;;;5017185;28;20528;-72
2021/03/31 05:24:40;;;;;;;7.30;6.30;;;10.00;92.30;;;;;;5015256;28;20709;-72
2021/03/31 05:27:07;;;;;;;14.53;7.60;;;10.10;92.40;;;;;;5016484;28;20580;-72
2021/03/31 05:29:32;;;;;;;9.83;6.00;;;10.00;92.40;;;;;;5016265;28;20262;-72
2021/03/31 05:31:59;;;;;;;14.33;7.13;;;9.90;93.10;;;;;;5016478;28;20564;-72
2021/03/31 05:34:24;;;;;;;7.40;6.13;;;10.00;92.70;;;;;;5015546;28;20174;-73
2021/03/31 05:36:53;;;;;;;9.13;6.40;;;10.00;92.70;;;;;;5016631;28;20438;-74
2021/03/31 05:39:19;;;;;;;7.80;5.97;;;10.00;92.50;;;;;;5017801;28;20931;-73
2021/03/31 05:41:45;;;;;;;8.70;6.53;;;10.10;92.50;;;;;;5004538;28;20560;-73
2021/03/31 05:44:11;;;;;;;10.33;7.50;;;10.10;92.50;;;;;;5004922;28;20277;-73
2021/03/31 05:46:38;;;;;;;13.23;7.97;;;10.10;92.40;;;;;;5008984;28;20507;-73
2021/03/31 05:49:04;;;;;;;9.07;6.00;;;10.20;92.40;;;;;;5003663;28;20780;-72
2021/03/31 05:51:31;;;;;;;31.30;10.20;;;10.20;92.30;;;;;;5012903;28;20466;-73
2021/03/31 05:53:56;;;;;;;15.70;7.80;;;10.20;92.30;;;;;;5010790;28;20183;-72
2021/03/31 05:56:22;;;;;;;10.80;6.90;;;10.20;92.40;;;;;;5003467;28;20449;-73
2021/03/31 05:58:49;;;;;;;11.13;6.97;;;10.30;92.70;;;;;;4995891;28;20263;-72
2021/03/31 06:01:16;;;;;;;9.00;6.30;;;10.30;92.70;;;;;;5008225;28;20491;-72
2021/03/31 06:03:42;;;;;;;11.43;7.23;;;10.30;92.60;;;;;;5033457;28;20501;-72
2021/03/31 06:06:09;;;;;;;10.47;6.23;;;10.40;92.60;;;;;;5032143;28;20421;-72
2021/03/31 06:08:34;;;;;;;10.60;7.20;;;10.40;92.60;;;;;;5010811;28;20452;-72
2021/03/31 06:11:01;;;;;;;8.27;6.40;;;10.40;92.40;;;;;;5003727;28;20544;-72
2021/03/31 06:13:46;;;;;;;9.43;7.37;;;10.40;92.50;;;;;;5011088;28;20233;-72
2021/03/31 06:16:26;;;;;;;11.03;7.60;;;10.40;92.10;;;;;;5007080;28;20774;-71
2021/03/31 06:18:51;;;;;;;14.87;7.93;;;10.50;92.00;;;;;;5006681;28;20437;-71
2021/03/31 06:21:17;;;;;;;9.20;6.97;;;10.50;91.90;;;;;;5014274;28;20456;-71
2021/03/31 06:23:52;;;;;;;10.63;7.20;;;10.50;91.90;;;;;;5012247;28;20190;-71
2021/03/31 06:26:20;;;;;;;10.98;8.30;;;10.60;91.80;;;;;;5022736;28;20498;-73
2021/03/31 06:29:18;;;;;;;12.03;7.93;;;10.70;91.90;;;;;;5026204;28;20236;-73
2021/03/31 06:31:46;;;;;;;11.43;8.10;;;10.70;91.80;;;;;;5010108;28;20480;-71
2021/03/31 06:34:20;;;;;;;10.32;7.70;;;10.80;91.70;;;;;;5014356;28;20818;-71
2021/03/31 06:36:50;;;;;;;10.50;7.50;;;10.90;91.60;;;;;;5035985;28;20257;-72
2021/03/31 06:39:26;;;;;;;9.50;7.93;;;10.90;91.30;;;;;;5034584;28;20441;-70
2021/03/31 06:41:55;;;;;;;13.97;8.30;;;11.00;91.30;;;;;;5024561;28;20548;-71
2021/03/31 06:44:35;;;;;;;9.20;7.60;;;11.10;91.20;;;;;;5021250;28;20467;-72
2021/03/31 06:47:08;;;;;;;9.70;7.33;;;11.20;91.10;;;;;;5015557;28;20532;-72
2021/03/31 06:49:33;;;;;;;10.40;7.50;;;11.20;90.90;;;;;;5009331;28;20458;-73
2021/03/31 06:52:05;;;;;;;9.10;7.50;;;11.30;90.70;;;;;;5008523;28;20450;-72
2021/03/31 06:54:41;;;;;;;11.80;8.43;;;11.30;90.50;;;;;;5009772;28;20762;-73
2021/03/31 06:57:07;;;;;;;12.83;8.70;;;11.40;90.40;;;;;;5019747;28;20414;-73
2021/03/31 06:59:33;;;;;;;9.10;7.77;;;11.50;90.40;;;;;;5016508;28;20415;-73
2021/03/31 07:02:04;;;;;;;12.50;8.27;;;11.50;90.20;;;;;;5001712;28;20964;-72
2021/03/31 07:04:31;;;;;;;11.87;8.17;;;11.60;90.10;;;;;;5006970;28;20849;-72
2021/03/31 07:07:03;;;;;;;15.90;9.07;;;11.70;89.90;;;;;;5009977;28;20426;-71
2021/03/31 07:09:29;;;;;;;12.53;9.23;;;11.80;89.90;;;;;;5010985;28;20902;-72
2021/03/31 07:11:55;;;;;;;12.00;9.10;;;11.90;90.00;;;;;;4999104;28;20833;-72
2021/03/31 07:14:21;;;;;;;14.80;8.97;;;12.00;89.70;;;;;;5013295;28;20422;-72
2021/03/31 07:16:48;;;;;;;11.20;8.37;;;12.00;89.30;;;;;;5014355;28;20180;-72
2021/03/31 07:19:14;;;;;;;11.30;8.40;;;12.10;89.00;;;;;;5007483;28;20434;-72
2021/03/31 07:21:40;;;;;;;11.33;7.60;;;12.20;88.70;;;;;;5014881;28;20498;-72
2021/03/31 07:24:07;;;;;;;12.60;8.73;;;12.30;88.30;;;;;;5021956;28;21083;-72
2021/03/31 07:26:34;;;;;;;11.63;8.13;;;12.40;88.10;;;;;;5002965;28;20430;-72
2021/03/31 07:29:00;;;;;;;9.70;8.40;;;12.50;88.00;;;;;;5007266;28;20430;-72
2021/03/31 07:31:28;;;;;;;10.57;8.50;;;12.60;87.90;;;;;;5003863;28;20501;-73
2021/03/31 07:34:11;;;;;;;13.63;8.43;;;12.70;87.90;;;;;;5015748;28;20409;-72
2021/03/31 07:36:39;;;;;;;15.30;8.43;;;12.80;87.70;;;;;;5023202;28;20429;-71
2021/03/31 07:39:07;;;;;;;13.50;8.43;;;12.90;87.50;;;;;;5041805;28;20431;-72
2021/03/31 07:41:35;;;;;;;13.27;8.50;;;13.00;87.30;;;;;;5029239;28;20535;-73
2021/03/31 07:44:01;;;;;;;13.10;9.60;;;13.10;86.90;;;;;;5025361;28;20415;-73
2021/03/31 07:46:34;;;;;;;15.80;9.83;;;13.20;86.50;;;;;;5018669;28;20417;-72
2021/03/31 07:49:00;;;;;;;12.43;9.50;;;13.30;86.30;;;;;;5013018;28;20461;-73
2021/03/31 07:51:30;;;;;;;13.30;9.90;;;13.40;85.90;;;;;;5009627;28;20529;-73
2021/03/31 07:53:57;;;;;;;14.53;9.17;;;13.50;85.50;;;;;;4998814;28;20430;-72
2021/03/31 07:56:31;;;;;;;17.90;9.37;;;13.60;85.50;;;;;;5022063;28;20418;-71
2021/03/31 07:59:09;;;;;;;16.50;9.63;;;13.80;85.20;;;;;;5021095;28;20423;-72
2021/03/31 08:01:53;;;;;;;15.90;9.17;;;13.90;85.00;;;;;;5030925;28;20437;-72
2021/03/31 08:04:22;;;;;;;11.60;9.13;;;14.00;84.50;;;;;;5000783;28;20450;-73
2021/03/31 08:06:56;;;;;;;14.93;10.00;;;14.10;83.80;;;;;;5012228;28;20715;-75
2021/03/31 08:09:33;;;;;;;16.53;9.60;;;14.30;83.60;;;;;;5025718;28;20447;-74
2021/03/31 08:12:05;;;;;;;15.10;10.10;;;14.40;83.30;;;;;;5031631;28;20464;-73
2021/03/31 08:14:30;;;;;;;12.90;9.20;;;14.50;83.00;;;;;;5029024;28;20472;-73
2021/03/31 08:16:59;;;;;;;13.97;9.50;;;14.60;82.70;;;;;;5018797;28;20453;-74
2021/03/31 08:19:31;;;;;;;12.30;9.03;;;14.70;82.30;;;;;;5008888;28;20175;-73
2021/03/31 08:21:59;;;;;;;16.57;9.70;;;14.90;81.80;;;;;;5010573;28;20476;-72
2021/03/31 08:24:44;;;;;;;16.13;9.57;;;15.10;81.60;;;;;;5012247;28;20450;-73
2021/03/31 08:27:10;;;;;;;14.50;9.10;;;15.20;81.20;;;;;;5013063;28;20493;-72
2021/03/31 08:29:35;;;;;;;11.07;9.10;;;15.40;80.90;;;;;;5017070;28;20521;-73
2021/03/31 08:32:06;;;;;;;12.17;9.07;;;15.50;79.80;;;;;;5031241;28;20540;-72
2021/03/31 08:34:33;;;;;;;15.13;9.33;;;15.70;79.20;;;;;;5033674;28;20159;-72
2021/03/31 08:37:02;;;;;;;12.93;10.30;;;15.80;78.90;;;;;;5031756;28;20507;-73
2021/03/31 08:39:28;;;;;;;21.13;9.67;;;15.90;77.80;;;;;;5015426;28;20425;-72
2021/03/31 08:41:57;;;;;;;16.80;10.37;;;16.10;76.90;;;;;;5027602;28;21089;-72
2021/03/31 08:44:29;;;;;;;19.10;10.80;;;16.30;76.00;;;;;;5025768;28;20418;-72
2021/03/31 08:46:56;;;;;;;12.40;8.97;;;16.40;74.50;;;;;;5026092;28;20422;-73
2021/03/31 08:49:25;;;;;;;12.60;8.00;;;16.50;72.30;;;;;;5017380;28;20422;-72
2021/03/31 08:51:54;;;;;;;12.30;8.50;;;16.60;69.40;;;;;;5015507;28;20536;-73
2021/03/31 08:54:33;;;;;;;14.30;9.40;;;16.70;67.60;;;;;;5033038;28;20416;-72
2021/03/31 08:57:00;;;;;;;9.10;8.10;;;17.00;68.30;;;;;;5033063;28;20420;-72
2021/03/31 08:59:33;;;;;;;11.80;7.60;;;17.20;72.90;;;;;;5022597;28;20441;-72
2021/03/31 09:01:59;;;;;;;11.20;8.30;;;17.30;70.60;;;;;;5013144;28;20489;-72
2021/03/31 09:04:26;;;;;;;12.90;8.87;;;17.50;65.10;;;;;;5022969;28;20436;-72
2021/03/31 09:06:53;;;;;;;9.77;8.03;;;17.60;63.20;;;;;;5017000;28;20417;-72
2021/03/31 09:09:18;;;;;;;9.50;8.20;;;17.80;61.60;;;;;;5008046;28;20434;-73
2021/03/31 09:11:44;;;;;;;9.17;7.73;;;17.90;60.70;;;;;;5031764;28;20465;-73
2021/03/31 09:14:16;;;;;;;10.50;6.90;;;18.10;58.70;;;;;;5030087;28;20172;-73
2021/03/31 09:16:56;;;;;;;11.90;7.13;;;18.30;57.40;;;;;;5038462;28;20196;-73
2021/03/31 09:20:09;;;;;;;7.80;7.00;;;18.50;57.70;;;;;;5008804;28;20485;-74
2021/03/31 09:22:36;;;;;;;6.37;5.77;;;18.70;58.10;;;;;;4999758;28;20881;-73
2021/03/31 09:25:03;;;;;;;12.47;6.23;;;18.80;57.70;;;;;;5010536;28;20924;-73
2021/03/31 09:27:31;;;;;;;9.37;6.27;;;18.90;57.90;;;;;;5021707;28;20464;-73
2021/03/31 09:30:01;;;;;;;6.60;5.83;;;19.00;55.50;;;;;;5013317;28;20452;-72
2021/03/31 09:32:34;;;;;;;10.80;6.67;;;19.10;57.40;;;;;;5017085;28;20529;-72
2021/03/31 09:35:05;;;;;;;8.83;5.53;;;19.20;58.50;;;;;;5018005;28;20439;-73
2021/03/31 09:37:38;;;;;;;6.27;4.93;;;19.30;56.50;;;;;;5021429;28;21077;-72
2021/03/31 09:40:04;;;;;;;5.50;4.63;;;19.50;55.90;;;;;;5013084;28;20459;-72
2021/03/31 09:42:32;;;;;;;5.47;4.97;;;19.60;54.80;;;;;;5012482;28;20418;-72
2021/03/31 09:44:58;;;;;;;6.27;4.40;;;19.80;54.30;;;;;;5021610;28;20454;-72
2021/03/31 09:47:25;;;;;;;6.90;4.90;;;19.80;54.20;;;;;;5016018;28;20836;-72
2021/03/31 09:49:53;;;;;;;8.20;5.40;;;19.90;53.60;;;;;;5021228;28;20420;-72
2021/03/31 09:52:29;;;;;;;8.07;5.77;;;20.00;54.20;;;;;;5022370;28;20564;-72
2021/03/31 09:55:07;;;;;;;9.60;5.77;;;20.10;53.90;;;;;;5026929;28;21123;-72
2021/03/31 09:57:36;;;;;;;12.03;5.20;;;20.30;54.10;;;;;;5017905;28;20543;-72
2021/03/31 10:00:07;;;;;;;5.07;4.57;;;20.40;54.40;;;;;;5011575;28;20489;-72
2021/03/31 10:02:34;;;;;;;11.10;4.73;;;20.40;53.40;;;;;;5003288;28;20432;-72
2021/03/31 10:05:12;;;;;;;6.80;4.50;;;20.50;53.30;;;;;;5009391;28;20434;-72
2021/03/31 10:07:38;;;;;;;7.27;4.63;;;20.50;52.70;;;;;;5007306;28;20466;-72
2021/03/31 10:10:06;;;;;;;6.07;4.93;;;20.70;53.10;;;;;;5024186;28;20872;-73
2021/03/31 10:12:34;;;;;;;5.03;4.53;;;20.80;52.80;;;;;;5023003;28;20206;-73
2021/03/31 10:15:03;;;;;;;6.60;4.60;;;20.90;52.10;;;;;;5048693;28;20504;-74
2021/03/31 10:17:30;;;;;;;7.03;4.70;;;20.90;52.00;;;;;;5047086;28;20830;-73
2021/03/31 10:20:17;;;;;;;4.80;4.30;;;21.00;51.70;;;;;;5017275;28;20450;-73
2021/03/31 10:22:52;;;;;;;4.90;4.40;;;21.00;51.80;;;;;;5024739;28;20775;-72
2021/03/31 10:25:25;;;;;;;4.27;3.87;;;21.10;53.50;;;;;;5015053;28;20442;-73
2021/03/31 10:27:51;;;;;;;3.83;3.37;;;21.20;52.20;;;;;;5028169;28;20433;-74
2021/03/31 10:30:30;;;;;;;4.77;4.07;;;21.20;51.20;;;;;;5012464;28;20457;-72
2021/03/31 10:32:57;;;;;;;4.73;4.17;;;21.30;49.90;;;;;;5026858;28;20229;-72
2021/03/31 10:35:54;;;;;;;4.00;3.60;;;21.40;49.70;;;;;;5015501;28;20449;-72
2021/03/31 10:38:34;;;;;;;4.30;3.90;;;21.40;49.10;;;;;;5022260;28;21279;-72
2021/03/31 10:49:32;;;;;;;4.37;3.23;;;21.60;47.90;;;;;;5018891;28;20429;-73
2021/03/31 10:54:26;;;;;;;4.10;3.70;;;21.60;46.40;;;;;;5017609;28;20466;-74
2021/03/31 10:57:04;;;;;;;6.20;4.40;;;21.70;46.70;;;;;;5030036;28;20181;-73
2021/03/31 10:59:30;;;;;;;6.83;4.67;;;21.60;46.60;;;;;;5029027;28;20418;-73
2021/03/31 11:01:56;;;;;;;4.30;3.90;;;21.70;47.20;;;;;;5018969;28;20441;-73
2021/03/31 11:04:21;;;;;;;4.67;4.10;;;21.80;47.20;;;;;;5014848;28;20175;-73
2021/03/31 11:06:47;;;;;;;5.20;3.77;;;21.90;47.90;;;;;;5017529;28;20183;-74
2021/03/31 11:09:30;;;;;;;7.47;3.53;;;21.90;46.40;;;;;;4978236;28;20232;-73
2021/03/31 11:11:59;;;;;;;6.57;4.20;;;21.90;46.40;;;;;;5000374;28;20298;-73
2021/03/31 11:14:24;;;;;;;3.90;3.60;;;21.90;46.70;;;;;;5011017;28;20501;-75
2021/03/31 11:17:17;;;;;;;5.13;3.83;;;22.00;47.50;;;;;;5021295;28;20564;-74
2021/03/31 11:19:48;;;;;;;4.40;4.00;;;22.00;47.50;;;;;;5012567;28;20253;-73
2021/03/31 11:27:42;;;;;;;4.23;3.90;;;21.80;49.10;;;;;;5025819;28;20444;-73
2021/03/31 11:30:10;;;;;;;4.70;3.50;;;21.60;50.60;;;;;;5014425;28;21239;-72
2021/03/31 11:32:39;;;;;;;5.13;3.80;;;21.70;51.50;;;;;;5013746;28;20203;-73
2021/03/31 11:35:05;;;;;;;4.10;3.53;;;21.80;46.40;;;;;;5017399;28;20778;-72
2021/03/31 11:37:31;;;;;;;5.20;4.30;;;21.70;47.40;;;;;;5022160;28;20417;-73
2021/03/31 11:39:56;;;;;;;4.13;3.60;;;21.80;50.10;;;;;;5018727;28;20461;-73
2021/03/31 11:42:22;;;;;;;8.23;4.33;;;21.70;50.00;;;;;;5025759;28;20628;-72
2021/03/31 11:44:48;;;;;;;4.93;3.80;;;21.80;49.30;;;;;;5012774;28;20183;-72
2021/03/31 11:47:14;;;;;;;5.70;4.37;;;21.80;48.30;;;;;;5028629;28;20183;-72
2021/03/31 11:49:40;;;;;;;4.90;3.83;;;21.70;47.10;;;;;;5020584;28;20237;-71
2021/03/31 11:52:06;;;;;;;6.77;4.00;;;21.70;43.40;;;;;;5017958;28;20462;-71
2021/03/31 11:54:31;;;;;;;4.10;3.70;;;21.80;46.60;;;;;;5025508;28;20178;-70
2021/03/31 11:56:57;;;;;;;4.13;3.57;;;21.80;49.00;;;;;;5014407;28;20452;-72
2021/03/31 11:59:23;;;;;;;4.10;3.80;;;21.70;49.40;;;;;;5015394;28;20265;-71
2021/03/31 12:01:48;;;;;;;3.80;3.30;;;21.70;48.70;;;;;;5010426;28;20210;-71
2021/03/31 12:04:15;;;;;;;5.63;4.90;;;21.60;48.40;;;;;;5023273;28;20636;-72
2021/03/31 12:06:41;;;;;;;7.30;4.10;;;21.50;48.00;;;;;;5027658;28;20210;-71
2021/03/31 12:09:08;;;;;;;4.87;3.97;;;21.60;47.20;;;;;;5018581;28;21034;-71
2021/03/31 12:11:34;;;;;;;6.40;4.20;;;21.60;46.60;;;;;;5016419;28;20465;-73
2021/03/31 12:13:59;;;;;;;5.73;4.93;;;21.50;48.40;;;;;;5014443;28;20433;-71
2021/03/31 12:16:25;;;;;;;4.27;3.87;;;21.50;48.20;;;;;;5025421;28;20254;-71
2021/03/31 12:18:51;;;;;;;4.10;3.70;;;21.60;47.70;;;;;;5009900;28;20183;-71
2021/03/31 12:21:16;;;;;;;4.40;4.00;;;21.60;45.10;;;;;;5030585;28;20206;-71
2021/03/31 12:23:42;;;;;;;7.07;4.40;;;21.70;44.50;;;;;;5024781;28;20183;-70
2021/03/31 12:26:08;;;;;;;5.67;3.47;;;21.80;43.70;;;;;;5030170;28;20199;-71
2021/03/31 12:28:36;;;;;;;4.67;4.00;;;21.80;46.60;;;;;;5030943;28;20285;-70
2021/03/31 12:31:07;;;;;;;5.57;3.97;;;21.80;45.00;;;;;;5016266;28;20302;-71
2021/03/31 12:33:33;;;;;;;3.77;3.33;;;21.80;43.20;;;;;;5021623;28;20446;-72
2021/03/31 12:35:59;;;;;;;4.90;4.00;;;21.70;46.80;;;;;;5022170;28;20425;-71
2021/03/31 12:38:24;;;;;;;3.73;3.43;;;21.60;48.00;;;;;;5013850;28;20426;-71
2021/03/31 12:40:50;;;;;;;4.40;3.90;;;21.70;44.10;;;;;;5025553;28;20582;-71
2021/03/31 12:43:16;;;;;;;3.97;3.60;;;21.60;47.50;;;;;;5023599;28;20183;-71
2021/03/31 12:45:41;;;;;;;4.37;3.50;;;21.60;47.90;;;;;;5019659;28;20301;-71
2021/03/31 12:48:07;;;;;;;4.47;3.13;;;21.50;47.70;;;;;;5018416;28;20485;-71
2021/03/31 12:50:35;;;;;;;4.10;3.20;;;21.60;46.90;;;;;;5013507;28;20203;-71
2021/03/31 12:53:08;;;;;;;4.40;3.80;;;21.60;45.20;;;;;;5014298;28;20222;-72
2021/03/31 12:55:36;;;;;;;4.67;4.10;;;21.60;46.10;;;;;;5021269;28;20422;-72
2021/03/31 12:58:05;;;;;;;5.37;3.80;;;21.60;46.50;;;;;;5022209;28;20425;-72
2021/03/31 13:00:31;;;;;;;3.87;3.20;;;21.70;44.10;;;;;;5013286;28;20441;-72
2021/03/31 13:02:56;;;;;;;9.73;4.00;;;21.80;46.50;;;;;;5020573;28;20504;-71
2021/03/31 13:05:22;;;;;;;4.90;3.77;;;21.80;45.80;;;;;;5028066;28;20207;-71
2021/03/31 13:07:48;;;;;;;3.20;2.90;;;21.70;48.10;;;;;;5018928;28;20184;-71
2021/03/31 13:10:14;;;;;;;3.97;3.03;;;21.60;46.60;;;;;;5028826;28;20201;-72